createdAt,value
2023-04-12T04:04:45.940Z,98823.97
2023-04-12T04:08:53.156Z,98822.97
2023-04-12T04:12:56.378Z,98815.28
2023-04-12T04:16:59.708Z,98806.03
2023-04-12T04:21:04.060Z,98800.25
2023-04-12T04:25:10.458Z,98800.88
2023-04-12T04:29:15.932Z,98792.03
2023-04-12T04:33:19.320Z,98786.00
2023-04-12T04:37:25.075Z,98789.38
2023-04-12T04:41:27.685Z,98778.91
2023-04-12T04:45:34.251Z,98768.81
2023-04-12T04:49:37.685Z,98764.06
2023-04-12T04:53:50.057Z,98753.34
2023-04-12T04:57:53.517Z,98753.56
2023-04-12T05:01:56.419Z,98741.41
2023-04-12T05:05:59.065Z,98745.78
2023-04-12T05:30:12.345Z,98727.16
2023-04-12T05:34:15.226Z,98719.53
2023-04-12T05:38:27.181Z,98716.22
2023-04-12T05:42:32.832Z,98702.03
2023-04-12T05:46:37.077Z,98714.22
2023-04-12T05:50:40.247Z,98692.53
2023-04-12T05:54:43.247Z,98683.44
2023-04-12T05:58:51.156Z,98673.94
2023-04-12T06:02:55.098Z,98666.31
2023-04-12T06:06:57.689Z,98652.09
2023-04-12T06:11:00.259Z,98653.34
2023-04-12T06:15:03.023Z,98637.66
2023-04-12T06:19:06.943Z,98636.59
2023-04-12T06:23:09.468Z,98628.47
2023-04-12T06:27:12.186Z,98622.16
2023-04-12T06:31:14.771Z,98612.66
2023-04-12T06:35:20.204Z,98602.75
2023-04-12T06:39:22.742Z,98591.00
2023-04-12T06:43:25.355Z,98582.56
2023-04-12T06:47:27.869Z,98572.94
2023-04-12T06:51:31.732Z,98560.50
2023-04-12T06:55:34.269Z,98560.22
2023-04-12T06:59:36.797Z,98549.00
2023-04-12T07:03:39.383Z,98543.97
2023-04-12T07:07:43.469Z,98536.25
2023-04-12T07:11:46.001Z,98530.88
2023-04-12T07:15:50.451Z,98538.22
2023-04-12T07:19:53.327Z,98530.78
2023-04-12T07:23:57.280Z,98524.53
2023-04-12T07:28:00.244Z,98520.53
2023-04-12T07:32:02.735Z,98507.44
2023-04-12T07:36:06.129Z,98504.19
2023-04-12T07:40:10.259Z,98503.56
2023-04-12T07:44:13.139Z,98495.22
2023-04-12T07:48:16.491Z,98482.19
2023-04-12T07:52:19.099Z,98473.75
2023-04-12T07:56:23.028Z,98461.22
2023-04-12T08:00:25.927Z,98461.56
2023-04-12T08:04:29.070Z,98445.28
2023-04-12T08:08:31.714Z,98437.28
2023-04-12T08:12:35.590Z,98430.22
2023-04-12T08:16:38.070Z,98433.22
2023-04-12T08:20:41.350Z,98425.09
2023-04-12T08:24:43.880Z,98428.56
2023-04-12T08:28:48.569Z,98415.19
2023-04-12T08:32:51.107Z,98414.72
2023-04-12T08:36:53.688Z,98408.16
2023-04-12T08:40:57.594Z,98409.88
2023-04-12T08:45:05.966Z,98393.22
2023-04-12T08:49:08.529Z,98405.25
2023-04-12T08:53:12.131Z,98390.16
2023-04-12T08:57:16.103Z,98379.81
2023-04-12T09:01:22.020Z,98381.94
2023-04-12T09:05:29.951Z,98374.56
2023-04-12T09:09:42.634Z,98363.66
2023-04-12T09:13:45.271Z,98355.41
2023-04-12T09:17:49.501Z,98358.31
2023-04-12T09:21:56.713Z,98347.19
2023-04-12T09:25:59.228Z,98332.06
2023-04-12T09:30:08.492Z,98320.59
2023-04-12T09:34:12.359Z,98325.06
2023-04-12T09:38:15.791Z,98309.13
2023-04-12T09:42:29.937Z,98296.22
2023-04-12T09:46:35.877Z,98302.19
2023-04-12T09:50:40.008Z,98288.00
2023-04-12T09:54:44.874Z,98278.19
2023-04-12T09:58:48.880Z,98264.22
2023-04-12T10:02:53.355Z,98263.78
2023-04-12T10:07:01.166Z,98265.13
2023-04-12T10:11:04.191Z,98255.56
2023-04-12T10:15:12.816Z,98257.53
2023-04-12T10:19:16.367Z,98257.25
2023-04-12T10:23:20.542Z,98248.84
2023-04-12T10:27:27.217Z,98228.81
2023-04-12T10:31:31.335Z,98218.66
2023-04-12T10:35:51.715Z,98206.75
2023-04-12T10:39:56.148Z,98210.66
2023-04-12T10:44:26.604Z,98200.09
2023-04-12T10:48:33.396Z,98196.13
2023-04-12T10:52:39.120Z,98199.16
2023-04-12T10:56:42.884Z,98184.09
2023-04-12T11:01:12.312Z,98197.22
2023-04-12T11:05:19.077Z,98183.84
2023-04-12T11:09:26.506Z,98192.63
2023-04-12T11:13:29.650Z,98189.16
2023-04-12T11:17:35.550Z,98166.34
2023-04-12T11:21:40.235Z,98170.63
2023-04-12T11:25:42.835Z,98167.38
2023-04-12T11:29:46.254Z,98165.31
2023-04-12T11:33:50.520Z,98160.72
2023-04-12T11:37:53.083Z,98164.38
2023-04-12T11:41:55.696Z,98151.22
2023-04-12T11:45:59.489Z,98136.38
2023-04-12T11:50:03.717Z,98136.16
2023-04-12T11:54:06.320Z,98131.84
2023-04-12T11:58:08.869Z,98125.69
2023-04-12T12:02:22.757Z,98129.03
2023-04-12T12:06:28.669Z,98126.31
2023-04-12T12:10:46.181Z,98120.94
2023-04-12T12:14:54.067Z,98118.66
2023-04-12T12:18:57.860Z,98115.09
2023-04-12T12:23:01.806Z,98116.63
2023-04-12T12:27:04.807Z,98110.19
2023-04-12T12:31:08.489Z,98099.16
2023-04-12T12:35:13.199Z,98096.69
2023-04-12T12:39:17.031Z,98089.84
2023-04-12T12:43:20.742Z,98084.03
2023-04-12T12:47:23.357Z,98078.09
2023-04-12T12:51:27.076Z,98066.59
2023-04-12T12:55:31.933Z,98077.19
2023-04-12T12:59:34.452Z,98071.19
2023-04-12T13:03:37.170Z,98076.59
2023-04-12T13:07:40.103Z,98068.56
2023-04-12T13:11:44.063Z,98064.81
2023-04-12T13:15:47.653Z,98052.78
2023-04-12T13:19:51.749Z,98064.88
2023-04-12T13:23:54.256Z,98058.91
2023-04-12T13:27:58.126Z,98051.56
2023-04-12T13:32:00.919Z,98048.63
2023-04-12T13:36:03.511Z,98055.47
2023-04-12T13:40:07.373Z,98042.00
2023-04-12T13:44:11.385Z,98034.06
2023-04-12T13:48:14.002Z,98030.72
2023-04-12T13:52:16.652Z,98021.22
2023-04-12T13:56:19.407Z,98015.63
2023-04-12T14:00:24.107Z,98020.97
2023-04-12T14:04:28.610Z,98007.22
2023-04-12T14:08:31.396Z,97995.34
2023-04-12T14:12:33.896Z,98003.78
2023-04-12T14:16:37.694Z,97989.28
2023-04-12T14:20:40.275Z,97980.38
2023-04-12T14:24:42.925Z,97982.44
2023-04-12T14:28:45.490Z,97983.50
2023-04-12T14:32:49.979Z,97989.59
2023-04-12T14:36:52.491Z,97990.34
2023-04-12T14:40:55.302Z,97990.34
2023-04-12T14:44:57.976Z,97993.41
2023-04-12T14:49:01.955Z,97991.94
2023-04-12T14:53:04.474Z,97989.13
2023-04-12T14:57:07.216Z,98001.16
2023-04-12T15:01:12.176Z,97986.47
2023-04-12T15:05:16.152Z,97973.78
2023-04-12T15:09:18.768Z,97974.72
2023-04-12T15:13:24.709Z,97962.66
2023-04-12T15:17:30.834Z,97962.91
2023-04-12T15:21:34.674Z,97965.69
2023-04-12T15:25:37.199Z,97953.28
2023-04-12T15:29:39.924Z,97938.97
2023-04-12T15:33:42.422Z,97936.47
2023-04-12T15:37:46.618Z,97926.72
2023-04-12T15:41:49.176Z,97933.00
2023-04-12T15:45:53.983Z,97940.47
2023-04-12T15:49:56.546Z,97939.69
2023-04-12T15:54:00.690Z,97935.47
2023-04-12T15:58:03.423Z,97935.06
2023-04-12T16:02:09.298Z,97939.41
2023-04-12T16:06:12.228Z,97937.56
2023-04-12T16:10:16.114Z,97937.78
2023-04-12T16:14:18.605Z,97936.88
2023-04-12T16:18:21.109Z,97936.72
2023-04-12T16:22:23.638Z,97945.31
2023-04-12T16:26:27.547Z,97933.19
2023-04-12T16:30:30.275Z,97923.41
2023-04-12T16:34:33.603Z,97919.13
2023-04-12T16:38:36.682Z,97925.63
2023-04-12T16:42:41.599Z,97933.97
2023-04-12T17:50:49.092Z,97939.88
2023-04-12T17:54:52.260Z,97966.88
2023-04-12T17:58:55.035Z,97992.34
2023-04-12T18:02:57.932Z,97968.00
2023-04-12T18:07:01.959Z,97978.06
2023-04-12T18:11:06.510Z,97983.47
2023-04-12T18:15:10.170Z,97988.25
2023-04-12T18:19:13.321Z,97995.66
2023-04-12T18:23:17.201Z,98003.56
2023-04-12T18:27:19.773Z,98013.56
2023-04-12T18:31:22.688Z,98012.88
2023-04-12T18:35:25.710Z,98030.69
2023-04-12T18:39:29.628Z,98044.00
2023-04-12T18:43:32.442Z,98056.84
2023-04-12T18:47:35.138Z,98052.50
2023-04-12T18:51:37.823Z,98055.69
2023-04-12T18:55:41.822Z,98067.88
2023-04-12T18:59:47.620Z,98091.38
2023-04-12T19:03:50.298Z,98100.31
2023-04-12T19:07:52.971Z,98109.47
2023-04-12T19:11:56.948Z,98108.63
2023-04-12T19:15:59.901Z,98106.44
2023-04-12T19:20:02.846Z,98107.97
2023-04-12T19:24:06.109Z,98108.97
2023-04-12T19:28:11.104Z,98126.00
2023-04-12T19:32:13.630Z,98131.81
2023-04-12T19:36:16.296Z,98142.13
2023-04-12T19:40:18.894Z,98147.84
2023-04-12T19:44:23.201Z,98150.44
2023-04-12T19:48:25.833Z,98150.69
2023-04-12T19:52:28.711Z,98164.56
2023-04-12T19:56:31.463Z,98169.50
2023-04-12T20:00:39.055Z,98181.34
2023-04-12T20:04:41.653Z,98202.59
2023-04-12T20:08:44.428Z,98209.22
2023-04-12T20:12:46.969Z,98212.63
2023-04-12T20:16:55.698Z,98220.13
2023-04-12T20:20:58.652Z,98221.59
2023-04-12T20:25:01.183Z,98238.78
2023-04-12T20:29:04.788Z,98243.84
2023-04-12T20:33:08.896Z,98259.84
2023-04-12T20:37:12.046Z,98250.88
2023-04-12T20:41:14.710Z,98237.06
2023-04-12T20:45:18.713Z,98233.81
2023-04-12T20:49:25.796Z,98218.13
2023-04-12T20:53:30.200Z,98227.69
2023-04-12T20:57:32.721Z,98225.63
